createdAt,value
2022-12-15T00:01:46.442Z,22.7
2022-12-15T00:07:30.405Z,23.5
2022-12-15T00:13:12.929Z,24.5
2022-12-15T00:18:20.961Z,24.8
2022-12-15T00:23:28.636Z,24
2022-12-15T00:29:06.902Z,23.4
2022-12-15T00:34:17.162Z,23
2022-12-15T00:39:54.983Z,22.9
2022-12-15T00:45:23.727Z,22.6
2022-12-15T00:51:00.983Z,23.2
2022-12-15T00:56:28.630Z,23.7
2022-12-15T01:01:51.717Z,24.1
2022-12-15T01:07:31.821Z,23.6
2022-12-15T01:12:39.886Z,23
2022-12-15T01:18:21.286Z,22.7
2022-12-15T01:23:42.884Z,22.6
2022-12-15T01:29:05.636Z,22.7
2022-12-15T01:34:28.792Z,23.4
2022-12-15T01:39:37.505Z,23.9
2022-12-15T01:44:59.844Z,24.2
2022-12-15T01:50:23.115Z,22.9
2022-12-15T01:56:06.912Z,22.7
2022-12-15T02:01:29.734Z,23.7
2022-12-15T02:07:14.395Z,24.2
2022-12-15T02:12:54.473Z,23.8
2022-12-15T02:18:21.562Z,23.3
2022-12-15T02:24:00.073Z,23
2022-12-15T02:29:37.766Z,22.8
2022-12-15T02:35:15.083Z,22.9
2022-12-15T02:40:53.876Z,23.8
2022-12-15T02:46:36.293Z,24.5
2022-12-15T02:52:13.991Z,24.3
2022-12-15T02:57:52.387Z,23.5
2022-12-15T03:03:15.570Z,23.2
2022-12-15T03:08:41.522Z,22.9
2022-12-15T03:14:08.388Z,22.6
2022-12-15T03:19:49.743Z,23.5
2022-12-15T03:25:28.136Z,24.3
2022-12-15T03:31:08.247Z,24.8
2022-12-15T03:36:30.292Z,24.2
2022-12-15T03:41:52.251Z,23.4
2022-12-15T03:47:37.338Z,23.1
2022-12-15T03:52:59.475Z,22.9
2022-12-15T03:58:37.928Z,22.8
2022-12-15T04:04:23.564Z,23.7
2022-12-15T04:09:46.139Z,24.4
2022-12-15T04:15:08.316Z,24.8
2022-12-15T04:20:51.362Z,23.3
2022-12-15T04:26:32.111Z,23.3
2022-12-15T04:32:15.558Z,24.1
2022-12-15T04:38:03.210Z,24.3
2022-12-15T04:43:40.778Z,23.4
2022-12-15T04:49:05.447Z,22.8
2022-12-15T04:54:28.775Z,22.6
2022-12-15T05:00:09.270Z,22.8
2022-12-15T05:05:20.343Z,23.2
2022-12-15T05:10:52.799Z,24.1
2022-12-15T05:16:29.926Z,24.4
2022-12-15T05:21:41.621Z,23.7
2022-12-15T05:27:26.114Z,23.2
2022-12-15T05:32:49.920Z,22.8
2022-12-15T05:38:19.082Z,22.7
2022-12-15T05:44:00.453Z,22.6
2022-12-15T05:49:37.749Z,23.2
2022-12-15T05:55:19.013Z,24.4
2022-12-15T06:00:58.663Z,25.1
2022-12-15T06:06:28.711Z,24.1
2022-12-15T06:12:09.820Z,23.4
2022-12-15T06:17:57.841Z,23
2022-12-15T06:23:40.532Z,22.7
2022-12-15T06:29:24.747Z,22.7
2022-12-15T06:35:08.707Z,24
2022-12-15T06:40:36.295Z,25
2022-12-15T06:46:00.570Z,24.4
2022-12-15T06:51:50.298Z,23.6
2022-12-15T06:57:24.739Z,23
2022-12-15T07:03:07.940Z,22.7
2022-12-15T07:08:51.733Z,22.4
2022-12-15T07:14:13.771Z,23.6
2022-12-15T07:19:58.905Z,24.4
2022-12-15T07:25:59.754Z,23.6
2022-12-15T07:31:46.509Z,23.5
2022-12-15T07:37:26.803Z,24.3
2022-12-15T07:43:06.831Z,23.6
2022-12-15T07:48:54.548Z,23.4
2022-12-15T07:54:39.803Z,24.2
2022-12-15T08:00:54.508Z,23.4
2022-12-15T08:06:21.920Z,23.6
2022-12-15T08:12:00.135Z,24.1
2022-12-15T08:18:17.246Z,23.1
2022-12-15T08:23:56.069Z,22.7
2022-12-15T08:30:09.308Z,23.9
2022-12-15T08:36:28.441Z,23.3
2022-12-15T08:41:50.492Z,23.2
2022-12-15T08:47:00.326Z,24.1
2022-12-15T08:52:55.475Z,23.3
2022-12-15T08:59:04.348Z,23.1
2022-12-15T09:04:45.665Z,23.8
2022-12-15T09:10:28.540Z,22.2
2022-12-15T09:16:42.350Z,21.9
2022-12-15T09:22:20.794Z,24.2
2022-12-15T09:28:10.615Z,24.1
2022-12-15T09:33:54.034Z,23.3
2022-12-15T09:39:32.506Z,24.4
2022-12-15T09:45:46.531Z,24.1
2022-12-15T09:51:24.688Z,23.4
2022-12-15T09:57:23.813Z,24.3
2022-12-15T10:02:50.709Z,24
2022-12-15T10:09:07.937Z,23.3
2022-12-15T10:14:42.275Z,24.3
2022-12-15T10:20:25.662Z,24
2022-12-15T10:26:41.914Z,23.3
2022-12-15T15:07:45.752Z,21.3
2022-12-15T15:18:47.532Z,21.1
2022-12-15T15:24:27.564Z,21.3
2022-12-15T15:29:54.530Z,23.9
2022-12-15T15:35:39.550Z,25.5
2022-12-15T15:41:18.853Z,26.7
2022-12-15T15:47:03.910Z,27.4
2022-12-15T15:52:12.851Z,27
2022-12-15T15:57:37.807Z,26.8
2022-12-15T16:03:24.879Z,26.6
2022-12-15T16:09:03.279Z,26.3
2022-12-15T16:14:32.828Z,27
2022-12-15T16:19:57.495Z,27.3
2022-12-15T16:25:19.855Z,26.6
2022-12-15T16:36:16.166Z,27.5
2022-12-15T16:41:38.782Z,27
2022-12-15T16:46:51.572Z,27.6
2022-12-15T16:52:32.050Z,26.8
2022-12-15T16:57:38.727Z,27.1
2022-12-15T17:03:55.592Z,27.6
2022-12-15T17:09:18.918Z,27.3
2022-12-15T17:15:03.836Z,26.3
2022-12-15T17:20:46.999Z,25.6
2022-12-15T17:27:09.849Z,26.8
2022-12-15T17:32:50.389Z,26.9
2022-12-15T17:38:28.996Z,26.6
2022-12-15T17:45:10.911Z,27.3
2022-12-15T17:50:53.330Z,27.2
2022-12-15T17:56:22.305Z,27.7
2022-12-15T18:02:01.147Z,28.3
2022-12-15T18:07:39.909Z,27.5
2022-12-15T18:13:02.291Z,27.6
2022-12-15T18:18:41.697Z,27.3
2022-12-15T18:24:22.431Z,27.3
2022-12-15T18:29:30.434Z,27.1
2022-12-15T18:35:12.172Z,27.9
2022-12-15T18:40:55.589Z,28.9
2022-12-15T18:46:35.794Z,29.1
2022-12-15T18:52:17.460Z,29.3
2022-12-15T18:57:56.089Z,30.2
2022-12-15T19:03:20.421Z,29.9
2022-12-15T19:08:43.381Z,29.1
2022-12-15T19:14:23.190Z,28.9
2022-12-15T19:20:07.551Z,27.9
2022-12-15T19:25:30.305Z,29
2022-12-15T19:31:15.706Z,29.6
2022-12-15T19:36:55.006Z,29.6
2022-12-15T19:42:17.203Z,29.1
2022-12-15T19:47:54.853Z,29.1
2022-12-15T19:53:33.624Z,28.6
2022-12-15T19:59:17.745Z,27.9
2022-12-15T20:04:58.659Z,28.4
2022-12-15T20:10:42.115Z,27
2022-12-15T20:16:07.395Z,26.5
2022-12-15T20:21:29.493Z,26.2
2022-12-15T20:26:51.851Z,26.3
2022-12-15T20:32:38.128Z,26.4
2022-12-15T20:38:16.864Z,25.9
2022-12-15T20:43:40.268Z,25.8
2022-12-15T20:49:18.285Z,25.6
2022-12-15T20:54:56.523Z,26
2022-12-15T21:00:23.608Z,25.8
2022-12-15T21:06:05.151Z,26.1
2022-12-15T21:11:42.697Z,26
2022-12-15T21:17:24.752Z,26.1
2022-12-15T21:24:05.923Z,26
2022-12-15T21:29:47.350Z,26.2
2022-12-15T21:35:31.829Z,26.6
2022-12-15T21:41:16.974Z,27.1
2022-12-15T21:46:46.085Z,26.8
2022-12-15T21:52:12.322Z,26.7
2022-12-15T21:57:51.575Z,26.5
2022-12-15T22:03:32.709Z,26.1
2022-12-15T22:09:18.206Z,25.8
2022-12-15T22:14:41.969Z,25.4
2022-12-15T22:19:49.625Z,24.9
2022-12-15T22:25:19.858Z,23.6
2022-12-15T22:30:45.103Z,22.9
2022-12-15T22:36:25.261Z,22.5
2022-12-15T22:42:11.560Z,22.3
2022-12-15T22:47:38.963Z,22.4
2022-12-15T22:53:18.288Z,23.2
2022-12-15T22:59:00.271Z,22.9
2022-12-15T23:04:25.762Z,22.7
2022-12-15T23:09:48.081Z,22.4
2022-12-15T23:15:27.425Z,22.3
2022-12-15T23:21:07.875Z,22.9
2022-12-15T23:26:45.530Z,22.8
2022-12-15T23:31:55.779Z,22.5
2022-12-15T23:37:34.561Z,22.2
2022-12-15T23:43:12.769Z,22.1
2022-12-15T23:48:55.072Z,22.8
2022-12-15T23:54:34.832Z,22.8
